sensor_id;sensor_type;location;lat;lon;timestamp;P1;durP1;ratioP1;P2;durP2;ratioP2
63534;SDS011;55128;50.230;18.944;2023-02-17T00:01:42;78.55;;;38.88;;
63534;SDS011;55128;50.230;18.944;2023-02-17T00:06:42;85.88;;;40.03;;
63534;SDS011;55128;50.230;18.944;2023-02-17T00:11:43;106.22;;;53.33;;
63534;SDS011;55128;50.230;18.944;2023-02-17T00:16:43;109.43;;;51.33;;
63534;SDS011;55128;50.230;18.944;2023-02-17T00:21:44;93.05;;;42.72;;
63534;SDS011;55128;50.230;18.944;2023-02-17T00:26:45;100.57;;;46.27;;
63534;SDS011;55128;50.230;18.944;2023-02-17T00:31:45;89.97;;;45.22;;
63534;SDS011;55128;50.230;18.944;2023-02-17T00:36:46;91.13;;;43.28;;
63534;SDS011;55128;50.230;18.944;2023-02-17T00:41:47;86.97;;;41.72;;
63534;SDS011;55128;50.230;18.944;2023-02-17T00:46:47;98.93;;;44.97;;
63534;SDS011;55128;50.230;18.944;2023-02-17T00:51:48;98.27;;;48.00;;
63534;SDS011;55128;50.230;18.944;2023-02-17T00:56:49;149.88;;;64.65;;
63534;SDS011;55128;50.230;18.944;2023-02-17T01:01:49;148.85;;;63.83;;
63534;SDS011;55128;50.230;18.944;2023-02-17T01:06:49;129.52;;;57.97;;
63534;SDS011;55128;50.230;18.944;2023-02-17T01:11:50;139.83;;;58.43;;
63534;SDS011;55128;50.230;18.944;2023-02-17T01:16:50;140.00;;;60.00;;
63534;SDS011;55128;50.230;18.944;2023-02-17T01:21:50;126.72;;;57.80;;
63534;SDS011;55128;50.230;18.944;2023-02-17T01:26:51;116.95;;;50.92;;
63534;SDS011;55128;50.230;18.944;2023-02-17T01:31:51;119.80;;;53.83;;
63534;SDS011;55128;50.230;18.944;2023-02-17T01:36:51;114.93;;;51.53;;
63534;SDS011;55128;50.230;18.944;2023-02-17T01:41:52;115.70;;;47.22;;
63534;SDS011;55128;50.230;18.944;2023-02-17T01:46:53;106.57;;;46.92;;
63534;SDS011;55128;50.230;18.944;2023-02-17T01:57:10;111.65;;;49.90;;
63534;SDS011;55128;50.230;18.944;2023-02-17T02:02:14;111.73;;;49.83;;
63534;SDS011;55128;50.230;18.944;2023-02-17T02:07:37;112.85;;;46.15;;
63534;SDS011;55128;50.230;18.944;2023-02-17T02:12:38;101.72;;;44.85;;
63534;SDS011;55128;50.230;18.944;2023-02-17T02:28:20;104.88;;;48.80;;
63534;SDS011;55128;50.230;18.944;2023-02-17T02:33:39;101.05;;;46.70;;
63534;SDS011;55128;50.230;18.944;2023-02-17T02:38:45;109.07;;;48.97;;
63534;SDS011;55128;50.230;18.944;2023-02-17T02:43:52;104.60;;;43.83;;
63534;SDS011;55128;50.230;18.944;2023-02-17T02:48:53;110.10;;;46.03;;
63534;SDS011;55128;50.230;18.944;2023-02-17T03:09:58;100.97;;;49.08;;
63534;SDS011;55128;50.230;18.944;2023-02-17T03:15:01;95.50;;;47.17;;
63534;SDS011;55128;50.230;18.944;2023-02-17T03:20:07;97.13;;;46.47;;
63534;SDS011;55128;50.230;18.944;2023-02-17T03:25:08;101.60;;;46.63;;
63534;SDS011;55128;50.230;18.944;2023-02-17T03:30:09;88.15;;;40.42;;
63534;SDS011;55128;50.230;18.944;2023-02-17T03:35:10;93.50;;;44.63;;
63534;SDS011;55128;50.230;18.944;2023-02-17T03:40:10;83.75;;;40.20;;
63534;SDS011;55128;50.230;18.944;2023-02-17T03:45:10;83.40;;;39.63;;
63534;SDS011;55128;50.230;18.944;2023-02-17T03:50:11;90.55;;;41.92;;
63534;SDS011;55128;50.230;18.944;2023-02-17T03:55:11;78.57;;;38.28;;
63534;SDS011;55128;50.230;18.944;2023-02-17T04:00:12;80.93;;;41.42;;
63534;SDS011;55128;50.230;18.944;2023-02-17T04:05:13;82.28;;;40.33;;
63534;SDS011;55128;50.230;18.944;2023-02-17T04:10:13;82.10;;;38.90;;
63534;SDS011;55128;50.230;18.944;2023-02-17T04:15:14;81.60;;;39.55;;
63534;SDS011;55128;50.230;18.944;2023-02-17T04:20:14;73.43;;;36.10;;
63534;SDS011;55128;50.230;18.944;2023-02-17T04:25:14;68.15;;;33.40;;
63534;SDS011;55128;50.230;18.944;2023-02-17T04:30:15;76.63;;;34.05;;
63534;SDS011;55128;50.230;18.944;2023-02-17T04:35:15;66.95;;;35.05;;
63534;SDS011;55128;50.230;18.944;2023-02-17T04:40:16;68.90;;;33.83;;
63534;SDS011;55128;50.230;18.944;2023-02-17T04:45:17;68.38;;;36.47;;
63534;SDS011;55128;50.230;18.944;2023-02-17T04:50:17;69.45;;;34.55;;
63534;SDS011;55128;50.230;18.944;2023-02-17T04:55:18;68.37;;;36.13;;
63534;SDS011;55128;50.230;18.944;2023-02-17T05:00:18;70.13;;;33.63;;
63534;SDS011;55128;50.230;18.944;2023-02-17T05:05:19;61.08;;;32.22;;
63534;SDS011;55128;50.230;18.944;2023-02-17T05:10:20;65.85;;;33.38;;
63534;SDS011;55128;50.230;18.944;2023-02-17T05:15:20;58.45;;;31.67;;
63534;SDS011;55128;50.230;18.944;2023-02-17T05:20:20;65.73;;;35.10;;
63534;SDS011;55128;50.230;18.944;2023-02-17T05:25:21;63.07;;;32.57;;
63534;SDS011;55128;50.230;18.944;2023-02-17T05:30:21;57.50;;;32.67;;
63534;SDS011;55128;50.230;18.944;2023-02-17T05:35:21;65.78;;;35.05;;
63534;SDS011;55128;50.230;18.944;2023-02-17T05:40:22;64.25;;;34.85;;
63534;SDS011;55128;50.230;18.944;2023-02-17T05:45:22;63.83;;;34.33;;
63534;SDS011;55128;50.230;18.944;2023-02-17T05:50:23;58.87;;;32.97;;
63534;SDS011;55128;50.230;18.944;2023-02-17T05:55:23;68.90;;;34.08;;
63534;SDS011;55128;50.230;18.944;2023-02-17T06:00:24;63.10;;;34.20;;
63534;SDS011;55128;50.230;18.944;2023-02-17T06:05:24;57.72;;;32.80;;
63534;SDS011;55128;50.230;18.944;2023-02-17T06:10:24;51.07;;;29.33;;
63534;SDS011;55128;50.230;18.944;2023-02-17T06:15:25;47.80;;;27.10;;
63534;SDS011;55128;50.230;18.944;2023-02-17T06:20:25;48.70;;;27.20;;
63534;SDS011;55128;50.230;18.944;2023-02-17T06:25:25;51.55;;;27.95;;
63534;SDS011;55128;50.230;18.944;2023-02-17T06:30:26;45.58;;;24.95;;
63534;SDS011;55128;50.230;18.944;2023-02-17T06:35:26;41.05;;;24.85;;
63534;SDS011;55128;50.230;18.944;2023-02-17T06:40:26;43.53;;;25.43;;
63534;SDS011;55128;50.230;18.944;2023-02-17T06:45:27;38.40;;;21.57;;
63534;SDS011;55128;50.230;18.944;2023-02-17T06:50:27;40.20;;;22.60;;
63534;SDS011;55128;50.230;18.944;2023-02-17T06:55:29;37.55;;;22.85;;
63534;SDS011;55128;50.230;18.944;2023-02-17T07:00:31;39.58;;;22.27;;
63534;SDS011;55128;50.230;18.944;2023-02-17T07:06:39;38.08;;;22.48;;
63534;SDS011;55128;50.230;18.944;2023-02-17T07:12:42;32.30;;;21.05;;
63534;SDS011;55128;50.230;18.944;2023-02-17T07:18:25;35.92;;;21.88;;
63534;SDS011;55128;50.230;18.944;2023-02-17T07:24:14;35.50;;;21.52;;
63534;SDS011;55128;50.230;18.944;2023-02-17T07:29:54;38.97;;;21.58;;
63534;SDS011;55128;50.230;18.944;2023-02-17T07:34:54;37.03;;;21.25;;
63534;SDS011;55128;50.230;18.944;2023-02-17T07:39:55;37.53;;;21.77;;
63534;SDS011;55128;50.230;18.944;2023-02-17T07:44:57;34.20;;;21.27;;
63534;SDS011;55128;50.230;18.944;2023-02-17T07:49:57;33.97;;;20.98;;
63534;SDS011;55128;50.230;18.944;2023-02-17T07:54:58;32.80;;;20.03;;
63534;SDS011;55128;50.230;18.944;2023-02-17T07:59:58;32.37;;;19.30;;
63534;SDS011;55128;50.230;18.944;2023-02-17T08:04:58;32.20;;;19.50;;
63534;SDS011;55128;50.230;18.944;2023-02-17T08:09:59;32.57;;;20.33;;
63534;SDS011;55128;50.230;18.944;2023-02-17T08:15:18;32.63;;;19.23;;
63534;SDS011;55128;50.230;18.944;2023-02-17T08:20:18;35.55;;;19.88;;
63534;SDS011;55128;50.230;18.944;2023-02-17T08:25:19;31.65;;;18.98;;
63534;SDS011;55128;50.230;18.944;2023-02-17T08:30:19;34.03;;;20.33;;
63534;SDS011;55128;50.230;18.944;2023-02-17T08:35:19;32.03;;;19.02;;
63534;SDS011;55128;50.230;18.944;2023-02-17T08:40:23;31.97;;;19.30;;
63534;SDS011;55128;50.230;18.944;2023-02-17T08:45:24;33.10;;;19.30;;
63534;SDS011;55128;50.230;18.944;2023-02-17T08:50:24;30.50;;;17.50;;
63534;SDS011;55128;50.230;18.944;2023-02-17T08:55:25;32.53;;;18.65;;
63534;SDS011;55128;50.230;18.944;2023-02-17T09:00:25;31.35;;;18.48;;
63534;SDS011;55128;50.230;18.944;2023-02-17T09:05:26;28.83;;;17.98;;
63534;SDS011;55128;50.230;18.944;2023-02-17T09:10:26;33.23;;;18.47;;
63534;SDS011;55128;50.230;18.944;2023-02-17T09:15:27;31.13;;;17.70;;
63534;SDS011;55128;50.230;18.944;2023-02-17T09:20:27;28.98;;;17.75;;
63534;SDS011;55128;50.230;18.944;2023-02-17T09:25:27;28.67;;;17.35;;
63534;SDS011;55128;50.230;18.944;2023-02-17T09:30:28;29.55;;;17.55;;
63534;SDS011;55128;50.230;18.944;2023-02-17T09:35:29;29.77;;;16.55;;
63534;SDS011;55128;50.230;18.944;2023-02-17T09:40:37;27.48;;;17.10;;
63534;SDS011;55128;50.230;18.944;2023-02-17T09:45:49;25.85;;;16.17;;
63534;SDS011;55128;50.230;18.944;2023-02-17T09:51:08;24.73;;;15.93;;
63534;SDS011;55128;50.230;18.944;2023-02-17T09:56:17;25.63;;;15.80;;
63534;SDS011;55128;50.230;18.944;2023-02-17T10:01:30;24.02;;;15.55;;
63534;SDS011;55128;50.230;18.944;2023-02-17T10:06:33;29.55;;;17.00;;
63534;SDS011;55128;50.230;18.944;2023-02-17T10:16:47;25.77;;;15.90;;
63534;SDS011;55128;50.230;18.944;2023-02-17T10:38:02;29.85;;;17.30;;
63534;SDS011;55128;50.230;18.944;2023-02-17T10:43:14;27.77;;;16.70;;
63534;SDS011;55128;50.230;18.944;2023-02-17T10:48:38;27.23;;;16.45;;
63534;SDS011;55128;50.230;18.944;2023-02-17T10:53:44;23.45;;;14.93;;
63534;SDS011;55128;50.230;18.944;2023-02-17T11:04:10;24.33;;;14.15;;
63534;SDS011;55128;50.230;18.944;2023-02-17T11:09:24;26.40;;;15.27;;
63534;SDS011;55128;50.230;18.944;2023-02-17T11:14:32;23.80;;;14.73;;
63534;SDS011;55128;50.230;18.944;2023-02-17T11:19:35;24.00;;;15.95;;
63534;SDS011;55128;50.230;18.944;2023-02-17T11:24:35;24.23;;;14.73;;
63534;SDS011;55128;50.230;18.944;2023-02-17T11:29:37;25.63;;;15.77;;
63534;SDS011;55128;50.230;18.944;2023-02-17T11:34:39;23.13;;;15.33;;
63534;SDS011;55128;50.230;18.944;2023-02-17T11:39:42;23.23;;;15.38;;
63534;SDS011;55128;50.230;18.944;2023-02-17T11:44:47;27.00;;;16.58;;
63534;SDS011;55128;50.230;18.944;2023-02-17T11:50:08;25.30;;;15.40;;
63534;SDS011;55128;50.230;18.944;2023-02-17T12:12:15;23.33;;;15.20;;
63534;SDS011;55128;50.230;18.944;2023-02-17T12:22:31;25.90;;;15.18;;
63534;SDS011;55128;50.230;18.944;2023-02-17T12:27:48;23.67;;;14.63;;
63534;SDS011;55128;50.230;18.944;2023-02-17T12:48:49;23.30;;;14.77;;
63534;SDS011;55128;50.230;18.944;2023-02-17T12:54:02;22.20;;;14.55;;
63534;SDS011;55128;50.230;18.944;2023-02-17T12:59:21;21.70;;;13.80;;
63534;SDS011;55128;50.230;18.944;2023-02-17T13:04:25;23.92;;;14.77;;
63534;SDS011;55128;50.230;18.944;2023-02-17T13:09:29;23.92;;;14.43;;
63534;SDS011;55128;50.230;18.944;2023-02-17T13:14:38;22.73;;;14.50;;
63534;SDS011;55128;50.230;18.944;2023-02-17T13:19:39;21.48;;;13.82;;
63534;SDS011;55128;50.230;18.944;2023-02-17T13:24:51;21.90;;;14.20;;
63534;SDS011;55128;50.230;18.944;2023-02-17T13:29:57;22.20;;;14.35;;
63534;SDS011;55128;50.230;18.944;2023-02-17T13:45:26;23.23;;;13.85;;
63534;SDS011;55128;50.230;18.944;2023-02-17T13:50:34;19.57;;;13.37;;
63534;SDS011;55128;50.230;18.944;2023-02-17T13:55:38;26.35;;;15.13;;
63534;SDS011;55128;50.230;18.944;2023-02-17T14:00:43;17.45;;;11.15;;
63534;SDS011;55128;50.230;18.944;2023-02-17T14:05:45;20.23;;;12.67;;
63534;SDS011;55128;50.230;18.944;2023-02-17T14:10:46;16.50;;;11.88;;
63534;SDS011;55128;50.230;18.944;2023-02-17T14:15:48;21.52;;;12.05;;
63534;SDS011;55128;50.230;18.944;2023-02-17T14:20:58;17.02;;;11.85;;
63534;SDS011;55128;50.230;18.944;2023-02-17T14:25:59;20.10;;;12.52;;
63534;SDS011;55128;50.230;18.944;2023-02-17T14:31:09;20.15;;;12.82;;
63534;SDS011;55128;50.230;18.944;2023-02-17T14:36:10;19.15;;;12.38;;
63534;SDS011;55128;50.230;18.944;2023-02-17T14:41:11;18.57;;;12.13;;
63534;SDS011;55128;50.230;18.944;2023-02-17T14:46:11;20.37;;;13.00;;
63534;SDS011;55128;50.230;18.944;2023-02-17T14:51:14;21.17;;;12.70;;
63534;SDS011;55128;50.230;18.944;2023-02-17T15:01:34;30.70;;;16.52;;
63534;SDS011;55128;50.230;18.944;2023-02-17T15:06:39;22.83;;;14.70;;
63534;SDS011;55128;50.230;18.944;2023-02-17T15:11:44;22.70;;;14.30;;
63534;SDS011;55128;50.230;18.944;2023-02-17T15:16:45;20.85;;;13.40;;
63534;SDS011;55128;50.230;18.944;2023-02-17T15:21:48;19.50;;;12.95;;
63534;SDS011;55128;50.230;18.944;2023-02-17T15:26:51;21.40;;;13.73;;
63534;SDS011;55128;50.230;18.944;2023-02-17T15:31:53;24.35;;;13.60;;
63534;SDS011;55128;50.230;18.944;2023-02-17T15:37:01;21.35;;;14.23;;
63534;SDS011;55128;50.230;18.944;2023-02-17T15:42:05;21.60;;;13.13;;
63534;SDS011;55128;50.230;18.944;2023-02-17T15:47:15;20.00;;;12.50;;
63534;SDS011;55128;50.230;18.944;2023-02-17T15:52:39;18.20;;;11.90;;
63534;SDS011;55128;50.230;18.944;2023-02-17T17:17:55;18.60;;;11.73;;
63534;SDS011;55128;50.230;18.944;2023-02-17T17:23:01;16.27;;;11.88;;
63534;SDS011;55128;50.230;18.944;2023-02-17T17:28:11;17.70;;;11.52;;
63534;SDS011;55128;50.230;18.944;2023-02-17T17:33:15;15.88;;;11.57;;
63534;SDS011;55128;50.230;18.944;2023-02-17T17:38:15;19.73;;;14.13;;
63534;SDS011;55128;50.230;18.944;2023-02-17T17:43:16;17.08;;;11.27;;
63534;SDS011;55128;50.230;18.944;2023-02-17T17:48:19;17.40;;;11.57;;
63534;SDS011;55128;50.230;18.944;2023-02-17T17:53:19;16.90;;;11.50;;
63534;SDS011;55128;50.230;18.944;2023-02-17T17:58:19;16.87;;;10.47;;
63534;SDS011;55128;50.230;18.944;2023-02-17T18:03:20;17.75;;;11.90;;
63534;SDS011;55128;50.230;18.944;2023-02-17T18:08:20;15.80;;;10.53;;
63534;SDS011;55128;50.230;18.944;2023-02-17T18:13:21;16.15;;;11.55;;
63534;SDS011;55128;50.230;18.944;2023-02-17T18:18:22;15.75;;;11.55;;
63534;SDS011;55128;50.230;18.944;2023-02-17T18:23:24;17.48;;;11.85;;
63534;SDS011;55128;50.230;18.944;2023-02-17T18:28:24;18.30;;;12.57;;
63534;SDS011;55128;50.230;18.944;2023-02-17T18:33:24;17.10;;;12.50;;
63534;SDS011;55128;50.230;18.944;2023-02-17T18:38:25;18.00;;;12.27;;
63534;SDS011;55128;50.230;18.944;2023-02-17T18:43:25;17.05;;;11.75;;
63534;SDS011;55128;50.230;18.944;2023-02-17T18:48:26;18.25;;;11.88;;
63534;SDS011;55128;50.230;18.944;2023-02-17T18:53:26;15.35;;;12.65;;
63534;SDS011;55128;50.230;18.944;2023-02-17T18:58:26;19.42;;;12.57;;
63534;SDS011;55128;50.230;18.944;2023-02-17T19:03:28;18.23;;;12.30;;
63534;SDS011;55128;50.230;18.944;2023-02-17T19:08:29;17.38;;;12.63;;
63534;SDS011;55128;50.230;18.944;2023-02-17T19:13:29;19.00;;;13.73;;
63534;SDS011;55128;50.230;18.944;2023-02-17T19:18:30;20.77;;;14.18;;
63534;SDS011;55128;50.230;18.944;2023-02-17T19:23:30;18.50;;;13.10;;
63534;SDS011;55128;50.230;18.944;2023-02-17T19:28:31;19.92;;;12.82;;
63534;SDS011;55128;50.230;18.944;2023-02-17T19:33:32;17.13;;;12.73;;
63534;SDS011;55128;50.230;18.944;2023-02-17T19:38:33;16.40;;;12.52;;
63534;SDS011;55128;50.230;18.944;2023-02-17T19:43:33;17.67;;;12.15;;
63534;SDS011;55128;50.230;18.944;2023-02-17T19:48:34;15.43;;;12.20;;
63534;SDS011;55128;50.230;18.944;2023-02-17T19:53:35;19.25;;;14.15;;
63534;SDS011;55128;50.230;18.944;2023-02-17T19:58:35;19.83;;;13.27;;
63534;SDS011;55128;50.230;18.944;2023-02-17T20:03:36;18.10;;;12.68;;
63534;SDS011;55128;50.230;18.944;2023-02-17T20:08:37;18.25;;;12.38;;
63534;SDS011;55128;50.230;18.944;2023-02-17T20:13:39;21.33;;;13.35;;
63534;SDS011;55128;50.230;18.944;2023-02-17T20:18:40;18.00;;;12.68;;
63534;SDS011;55128;50.230;18.944;2023-02-17T20:23:46;15.32;;;12.32;;
63534;SDS011;55128;50.230;18.944;2023-02-17T20:28:47;18.47;;;13.03;;
63534;SDS011;55128;50.230;18.944;2023-02-17T20:33:48;16.88;;;12.35;;
63534;SDS011;55128;50.230;18.944;2023-02-17T20:39:11;17.80;;;12.50;;
63534;SDS011;55128;50.230;18.944;2023-02-17T20:44:45;17.63;;;13.23;;
63534;SDS011;55128;50.230;18.944;2023-02-17T20:49:49;15.67;;;11.87;;
63534;SDS011;55128;50.230;18.944;2023-02-17T20:54:49;17.52;;;12.57;;
63534;SDS011;55128;50.230;18.944;2023-02-17T20:59:51;16.15;;;11.25;;
63534;SDS011;55128;50.230;18.944;2023-02-17T21:04:51;16.45;;;11.30;;
63534;SDS011;55128;50.230;18.944;2023-02-17T21:09:52;15.48;;;10.10;;
63534;SDS011;55128;50.230;18.944;2023-02-17T21:14:52;13.70;;;10.33;;
63534;SDS011;55128;50.230;18.944;2023-02-17T21:19:52;14.60;;;10.20;;
63534;SDS011;55128;50.230;18.944;2023-02-17T21:24:53;12.77;;;8.83;;
63534;SDS011;55128;50.230;18.944;2023-02-17T21:29:53;12.80;;;8.27;;
63534;SDS011;55128;50.230;18.944;2023-02-17T21:34:53;12.77;;;8.57;;
63534;SDS011;55128;50.230;18.944;2023-02-17T21:39:54;11.93;;;8.15;;
63534;SDS011;55128;50.230;18.944;2023-02-17T21:44:54;12.10;;;8.43;;
63534;SDS011;55128;50.230;18.944;2023-02-17T21:49:54;11.38;;;8.20;;
63534;SDS011;55128;50.230;18.944;2023-02-17T21:54:55;10.77;;;7.90;;
63534;SDS011;55128;50.230;18.944;2023-02-17T21:59:55;12.60;;;8.05;;
63534;SDS011;55128;50.230;18.944;2023-02-17T22:04:56;12.32;;;8.73;;
63534;SDS011;55128;50.230;18.944;2023-02-17T22:09:57;10.67;;;7.53;;
63534;SDS011;55128;50.230;18.944;2023-02-17T22:14:58;10.75;;;6.85;;
63534;SDS011;55128;50.230;18.944;2023-02-17T22:19:58;9.60;;;6.65;;
63534;SDS011;55128;50.230;18.944;2023-02-17T22:24:59;10.13;;;6.78;;
63534;SDS011;55128;50.230;18.944;2023-02-17T22:29:59;10.00;;;6.47;;
63534;SDS011;55128;50.230;18.944;2023-02-17T22:34:59;8.63;;;6.70;;
63534;SDS011;55128;50.230;18.944;2023-02-17T22:40:00;13.10;;;6.93;;
63534;SDS011;55128;50.230;18.944;2023-02-17T22:45:00;10.67;;;6.50;;
63534;SDS011;55128;50.230;18.944;2023-02-17T22:50:00;12.17;;;6.70;;
63534;SDS011;55128;50.230;18.944;2023-02-17T22:55:01;15.20;;;7.55;;
63534;SDS011;55128;50.230;18.944;2023-02-17T23:00:02;17.65;;;8.73;;
63534;SDS011;55128;50.230;18.944;2023-02-17T23:05:02;12.13;;;8.30;;
63534;SDS011;55128;50.230;18.944;2023-02-17T23:10:03;17.95;;;9.50;;
63534;SDS011;55128;50.230;18.944;2023-02-17T23:15:04;13.70;;;8.57;;
63534;SDS011;55128;50.230;18.944;2023-02-17T23:20:05;13.00;;;8.65;;
63534;SDS011;55128;50.230;18.944;2023-02-17T23:25:05;11.27;;;8.23;;
63534;SDS011;55128;50.230;18.944;2023-02-17T23:30:06;9.57;;;7.00;;
63534;SDS011;55128;50.230;18.944;2023-02-17T23:35:09;12.40;;;7.75;;
63534;SDS011;55128;50.230;18.944;2023-02-17T23:40:10;11.02;;;7.57;;
63534;SDS011;55128;50.230;18.944;2023-02-17T23:45:11;9.02;;;6.82;;
63534;SDS011;55128;50.230;18.944;2023-02-17T23:50:12;11.75;;;7.57;;
63534;SDS011;55128;50.230;18.944;2023-02-17T23:55:12;12.97;;;7.67;;
